Time;durP1;ratioP1;P1;durP2;ratioP2;P2;SDS_P1;SDS_P2;PMS_P1;PMS_P2;Temp;Humidity;BMP_temperature;BMP_pressure;BME280_temperature;BME280_humidity;BME280_pressure;Samples;Min_cycle;Max_cycle;Signal;HPM_P1;HPM_P2
2023/01/16 00:00:28;;;;;;;1.37;0.97;;;3.70;99.90;;;;;;4978073;28;20173;-82
2023/01/16 00:02:53;;;;;;;2.40;1.10;;;3.70;99.90;;;;;;4995495;28;20206;-82
2023/01/16 00:05:19;;;;;;;4.13;1.30;;;3.70;99.90;;;;;;4995476;28;20587;-82
2023/01/16 00:07:45;;;;;;;2.30;1.10;;;3.70;99.90;;;;;;4978092;28;20182;-82
2023/01/16 00:10:10;;;;;;;2.20;1.03;;;3.80;99.90;;;;;;4995183;28;20182;-81
2023/01/16 00:12:36;;;;;;;2.57;1.10;;;3.80;99.90;;;;;;4977724;28;20223;-82
2023/01/16 00:15:02;;;;;;;4.47;1.27;;;3.80;99.90;;;;;;4975860;28;20689;-82
2023/01/16 00:17:27;;;;;;;2.23;1.03;;;3.80;99.90;;;;;;4958300;28;20219;-82
2023/01/16 00:19:53;;;;;;;5.20;1.20;;;3.80;99.90;;;;;;4975620;28;20172;-82
2023/01/16 00:22:18;;;;;;;3.07;1.23;;;3.90;99.90;;;;;;4958622;28;20595;-81
2023/01/16 00:24:44;;;;;;;2.07;1.17;;;3.90;99.90;;;;;;4958277;28;20180;-82
2023/01/16 00:27:09;;;;;;;3.43;1.10;;;3.90;99.90;;;;;;4958414;28;20211;-82
2023/01/16 00:29:35;;;;;;;1.90;1.17;;;4.00;99.90;;;;;;4958333;28;20175;-81
2023/01/16 00:32:01;;;;;;;2.50;1.30;;;4.00;99.90;;;;;;4975280;28;20212;-81
2023/01/16 00:34:26;;;;;;;1.30;0.93;;;4.00;99.90;;;;;;4957972;28;20175;-82
2023/01/16 00:36:52;;;;;;;2.07;1.00;;;3.90;99.90;;;;;;4958154;28;20213;-82
2023/01/16 00:39:17;;;;;;;1.97;1.00;;;3.90;99.90;;;;;;4958231;28;20175;-82
2023/01/16 00:41:43;;;;;;;2.27;1.20;;;3.80;99.90;;;;;;4958042;28;20614;-82
2023/01/16 00:44:08;;;;;;;3.00;1.20;;;3.80;99.90;;;;;;4958125;28;20172;-82
2023/01/16 00:46:34;;;;;;;2.80;1.10;;;3.80;99.90;;;;;;4958120;28;20186;-82
2023/01/16 00:48:59;;;;;;;2.13;0.90;;;3.90;99.90;;;;;;4958013;28;20183;-82
2023/01/16 00:51:25;;;;;;;3.07;1.03;;;3.90;99.90;;;;;;4975034;28;20302;-82
2023/01/16 00:53:51;;;;;;;3.60;1.03;;;3.90;99.90;;;;;;4957706;28;20179;-82
2023/01/16 00:56:16;;;;;;;0.90;0.80;;;3.90;99.90;;;;;;4957469;28;20206;-82
2023/01/16 00:58:42;;;;;;;2.80;1.03;;;3.90;99.90;;;;;;4957610;28;20179;-81
2023/01/16 01:01:07;;;;;;;3.43;1.50;;;3.90;99.90;;;;;;4974854;28;20643;-82
2023/01/16 01:03:33;;;;;;;2.03;1.00;;;3.90;99.90;;;;;;4975243;28;20202;-82
2023/01/16 01:05:59;;;;;;;2.23;1.30;;;3.90;99.90;;;;;;4957962;28;20196;-81
2023/01/16 01:08:24;;;;;;;3.43;1.00;;;3.90;99.90;;;;;;4957478;28;20209;-82
2023/01/16 01:10:50;;;;;;;4.13;1.13;;;3.90;99.90;;;;;;4974886;28;20183;-82
2023/01/16 01:13:15;;;;;;;1.03;0.93;;;3.90;99.90;;;;;;4958364;28;20222;-82
2023/01/16 01:15:41;;;;;;;2.23;0.90;;;3.90;99.90;;;;;;4957607;28;20187;-82
2023/01/16 01:18:07;;;;;;;2.37;0.70;;;3.90;99.90;;;;;;4957204;28;20210;-82
2023/01/16 01:20:32;;;;;;;0.63;0.63;;;4.00;99.90;;;;;;4957307;28;20215;-82
2023/01/16 01:22:58;;;;;;;1.60;0.83;;;3.90;99.90;;;;;;4957523;28;20234;-82
2023/01/16 01:25:24;;;;;;;1.87;0.80;;;3.90;99.90;;;;;;4956824;28;20175;-82
2023/01/16 01:27:50;;;;;;;3.03;0.80;;;3.80;99.90;;;;;;4957079;28;20179;-82
2023/01/16 01:30:16;;;;;;;2.77;1.00;;;3.80;99.90;;;;;;4957040;28;20243;-82
2023/01/16 01:32:42;;;;;;;1.53;0.80;;;3.70;99.90;;;;;;4973824;28;20666;-82
2023/01/16 01:35:08;;;;;;;2.83;1.00;;;3.60;99.90;;;;;;4957152;28;20183;-83
2023/01/16 01:37:35;;;;;;;1.60;1.00;;;3.50;99.90;;;;;;4956775;28;20554;-82
2023/01/16 01:40:01;;;;;;;1.67;1.00;;;3.30;99.90;;;;;;4973930;28;20189;-82
2023/01/16 01:42:42;;;;;;;1.47;0.80;;;3.20;99.90;;;;;;4956719;28;20210;-82
2023/01/16 01:45:21;;;;;;;1.93;1.10;;;3.10;99.90;;;;;;4956754;28;20248;-82
2023/01/16 01:47:54;;;;;;;3.03;1.00;;;3.10;99.90;;;;;;4974176;28;20680;-82
2023/01/16 01:50:43;;;;;;;1.10;1.00;;;3.00;99.90;;;;;;4974007;28;20622;-82
2023/01/16 01:53:19;;;;;;;1.50;1.00;;;3.00;99.90;;;;;;4948503;28;20282;-83
2023/01/16 01:55:47;;;;;;;2.17;0.90;;;3.00;99.90;;;;;;4956914;28;20179;-82
2023/01/16 01:58:18;;;;;;;1.60;0.93;;;3.00;99.90;;;;;;4973900;28;20214;-82
2023/01/16 02:00:44;;;;;;;0.93;0.83;;;3.00;99.90;;;;;;4956816;28;20205;-82
2023/01/16 02:03:17;;;;;;;2.33;1.10;;;3.10;99.90;;;;;;4973718;28;20658;-82
2023/01/16 02:05:49;;;;;;;3.47;1.10;;;3.10;99.90;;;;;;4956831;28;20206;-82
2023/01/16 02:08:17;;;;;;;3.73;1.30;;;3.10;99.90;;;;;;4974074;28;20163;-83
2023/01/16 02:10:53;;;;;;;2.07;1.00;;;3.10;99.90;;;;;;4956599;28;20665;-82
2023/01/16 02:13:18;;;;;;;3.37;1.03;;;3.10;99.90;;;;;;4956634;28;20222;-82
2023/01/16 02:21:19;;;;;;;3.67;1.10;;;3.20;99.90;;;;;;4973787;28;20249;-82
2023/01/16 02:24:15;;;;;;;1.93;1.13;;;3.20;99.90;;;;;;4956654;28;20170;-82
2023/01/16 02:27:03;;;;;;;3.30;1.03;;;3.20;99.90;;;;;;4973617;28;20233;-81
2023/01/16 02:30:09;;;;;;;3.17;1.10;;;3.20;99.90;;;;;;4956220;28;20187;-82
2023/01/16 02:32:50;;;;;;;2.07;1.30;;;3.20;99.90;;;;;;4927966;28;20220;-82
2023/01/16 02:35:25;;;;;;;3.17;1.20;;;3.30;99.90;;;;;;4956194;28;20626;-82
2023/01/16 02:38:30;;;;;;;3.17;1.20;;;3.30;99.90;;;;;;4956539;28;20218;-82
2023/01/16 02:41:02;;;;;;;1.27;0.97;;;3.30;99.90;;;;;;4973308;28;20262;-80
2023/01/16 02:43:28;;;;;;;2.57;1.20;;;3.30;99.90;;;;;;4973534;28;20166;-82
2023/01/16 02:46:13;;;;;;;2.97;1.17;;;3.40;99.90;;;;;;4976556;28;20175;-82
2023/01/16 02:49:04;;;;;;;3.27;1.57;;;3.40;99.90;;;;;;4977139;28;20171;-82
2023/01/16 02:51:52;;;;;;;3.20;1.23;;;3.40;99.90;;;;;;4976930;28;20201;-82
2023/01/16 02:54:32;;;;;;;2.87;1.30;;;3.40;99.90;;;;;;4959492;28;20171;-81
2023/01/16 02:57:06;;;;;;;2.77;1.10;;;3.40;99.90;;;;;;4959858;28;20190;-82
2023/01/16 02:59:32;;;;;;;2.80;1.17;;;3.50;99.90;;;;;;4959731;28;20166;-82
2023/01/16 03:01:58;;;;;;;2.37;1.20;;;3.50;99.90;;;;;;4959099;28;20231;-82
2023/01/16 03:04:35;;;;;;;4.70;1.40;;;3.50;99.90;;;;;;4959410;28;20203;-81
2023/01/16 03:07:22;;;;;;;3.37;1.10;;;3.40;99.90;;;;;;4977016;28;20540;-82
2023/01/16 03:10:25;;;;;;;5.13;1.10;;;3.40;99.90;;;;;;4976899;28;20601;-82
2023/01/16 03:13:22;;;;;;;3.90;1.20;;;3.40;99.90;;;;;;4976361;28;20271;-82
2023/01/16 03:16:17;;;;;;;4.73;1.40;;;3.30;99.90;;;;;;4958940;28;20170;-84
2023/01/16 03:18:45;;;;;;;2.07;1.10;;;3.30;99.90;;;;;;4959023;28;20237;-82
2023/01/16 03:21:21;;;;;;;4.20;1.20;;;3.30;99.90;;;;;;4958519;28;20271;-82
2023/01/16 03:23:52;;;;;;;3.57;1.20;;;3.40;99.90;;;;;;4958632;28;20249;-82
2023/01/16 03:26:35;;;;;;;4.00;1.40;;;3.40;99.90;;;;;;4958658;28;20709;-82
2023/01/16 03:29:09;;;;;;;2.73;1.20;;;3.40;99.90;;;;;;4958751;28;20171;-82
2023/01/16 03:31:49;;;;;;;3.60;1.33;;;3.40;99.90;;;;;;4958568;28;20219;-82
2023/01/16 03:34:22;;;;;;;2.60;1.20;;;3.40;99.90;;;;;;4958573;28;20169;-82
2023/01/16 03:36:58;;;;;;;1.60;0.93;;;3.40;99.90;;;;;;4958239;28;20202;-82
2023/01/16 03:39:29;;;;;;;2.50;1.13;;;3.40;99.90;;;;;;4992998;28;20212;-82
2023/01/16 03:42:03;;;;;;;1.50;1.00;;;3.40;99.90;;;;;;4989079;28;20319;-82
2023/01/16 03:44:33;;;;;;;2.53;1.70;;;3.40;99.90;;;;;;5014846;28;20174;-82
2023/01/16 03:47:02;;;;;;;3.27;1.30;;;3.40;99.90;;;;;;5014735;28;20670;-82
2023/01/16 03:49:33;;;;;;;4.17;1.30;;;3.40;99.90;;;;;;4997141;28;20197;-82
2023/01/16 03:52:01;;;;;;;3.50;1.10;;;3.40;99.90;;;;;;5015059;28;20195;-82
2023/01/16 03:54:45;;;;;;;2.93;1.17;;;3.40;99.90;;;;;;5014299;28;20231;-82
2023/01/16 03:57:31;;;;;;;2.80;1.00;;;3.40;99.90;;;;;;4996977;28;20205;-82
2023/01/16 03:59:59;;;;;;;2.27;1.00;;;3.40;99.90;;;;;;4996775;28;20176;-82
2023/01/16 04:02:33;;;;;;;2.33;1.10;;;3.40;99.90;;;;;;4996823;28;20196;-82
2023/01/16 04:05:03;;;;;;;1.20;1.10;;;3.40;99.90;;;;;;5014235;28;20223;-82
2023/01/16 04:07:45;;;;;;;3.03;1.27;;;3.40;99.90;;;;;;5014252;28;20178;-82
2023/01/16 04:10:19;;;;;;;3.53;1.40;;;3.40;99.90;;;;;;5013784;28;20176;-82
2023/01/16 04:12:52;;;;;;;4.50;1.30;;;3.40;99.90;;;;;;5014055;28;20779;-82
2023/01/16 04:15:19;;;;;;;4.40;1.60;;;3.40;99.90;;;;;;5014092;28;20642;-82
2023/01/16 04:17:45;;;;;;;2.73;1.10;;;3.40;99.90;;;;;;5013919;28;20258;-82
2023/01/16 04:20:11;;;;;;;3.10;1.37;;;3.40;99.90;;;;;;5014170;28;20178;-82
2023/01/16 04:22:37;;;;;;;5.67;1.60;;;3.30;99.90;;;;;;4996431;28;20279;-82
2023/01/16 04:25:07;;;;;;;3.27;1.30;;;3.30;99.90;;;;;;5014051;28;20259;-83
2023/01/16 04:27:33;;;;;;;2.50;1.20;;;3.40;99.90;;;;;;5014250;28;20235;-82
2023/01/16 04:29:59;;;;;;;3.20;1.13;;;3.40;99.90;;;;;;4996396;28;20277;-83
2023/01/16 04:32:24;;;;;;;2.00;1.20;;;3.40;99.90;;;;;;5013593;28;20284;-82
2023/01/16 04:34:50;;;;;;;2.80;1.20;;;3.40;99.90;;;;;;4995989;28;20181;-82
2023/01/16 04:37:17;;;;;;;4.00;1.10;;;3.40;99.90;;;;;;4996045;28;20295;-81
2023/01/16 04:39:43;;;;;;;2.87;1.30;;;3.40;99.90;;;;;;4996084;28;20177;-82
2023/01/16 04:42:09;;;;;;;2.87;1.03;;;3.40;99.90;;;;;;5013656;28;20193;-80
2023/01/16 04:44:35;;;;;;;2.27;1.10;;;3.40;99.90;;;;;;4995629;28;20201;-82
2023/01/16 04:47:00;;;;;;;3.63;1.17;;;3.40;99.90;;;;;;4996289;28;20316;-82
2023/01/16 04:49:26;;;;;;;2.33;1.20;;;3.40;99.90;;;;;;5013875;28;20548;-82
2023/01/16 04:51:52;;;;;;;2.93;1.17;;;3.40;99.90;;;;;;5013410;28;20204;-83
2023/01/16 04:54:18;;;;;;;1.73;1.10;;;3.40;99.90;;;;;;5014028;28;20183;-81
2023/01/16 04:56:44;;;;;;;2.53;1.30;;;3.30;99.90;;;;;;4995898;28;20267;-82
2023/01/16 04:59:12;;;;;;;2.93;1.40;;;3.30;99.90;;;;;;5013283;28;20173;-84
2023/01/16 05:01:38;;;;;;;3.43;1.10;;;3.30;99.90;;;;;;4995678;28;20195;-82
2023/01/16 05:04:05;;;;;;;3.00;1.10;;;3.30;99.90;;;;;;4995869;28;20231;-82
2023/01/16 05:06:31;;;;;;;2.10;1.10;;;3.30;99.90;;;;;;4995200;28;20731;-82
2023/01/16 05:08:57;;;;;;;2.30;1.00;;;3.10;99.90;;;;;;5012785;28;20266;-81
2023/01/16 05:11:23;;;;;;;2.73;1.20;;;3.10;99.90;;;;;;5012829;28;20298;-82
2023/01/16 05:13:48;;;;;;;4.33;1.37;;;3.00;99.90;;;;;;5013000;28;20192;-82
2023/01/16 05:16:14;;;;;;;3.80;1.23;;;3.00;99.90;;;;;;5013244;28;20673;-82
2023/01/16 05:18:39;;;;;;;2.03;1.20;;;3.00;99.90;;;;;;4995609;28;20180;-82
2023/01/16 05:21:05;;;;;;;1.73;1.10;;;3.00;99.90;;;;;;4995372;28;20565;-82
2023/01/16 05:23:34;;;;;;;3.53;1.10;;;3.00;99.90;;;;;;5012856;28;20180;-82
2023/01/16 05:26:01;;;;;;;1.60;1.17;;;3.10;99.90;;;;;;5012972;28;20180;-82
2023/01/16 05:28:27;;;;;;;3.17;1.20;;;3.10;99.90;;;;;;5003008;28;20266;-80
2023/01/16 05:30:53;;;;;;;2.93;1.07;;;3.10;99.90;;;;;;4989131;28;20289;-81
2023/01/16 05:33:18;;;;;;;3.80;1.40;;;3.20;99.90;;;;;;4976038;28;20553;-80
2023/01/16 05:35:47;;;;;;;2.73;1.23;;;3.20;99.90;;;;;;4976491;28;20230;-82
2023/01/16 05:38:14;;;;;;;1.37;1.10;;;3.20;99.90;;;;;;4975914;28;20205;-82
2023/01/16 05:40:40;;;;;;;2.23;1.00;;;3.20;99.90;;;;;;4993176;28;20648;-83
2023/01/16 05:43:05;;;;;;;1.23;1.10;;;3.20;99.90;;;;;;4976210;28;20195;-81
2023/01/16 05:45:31;;;;;;;2.77;1.50;;;3.10;99.90;;;;;;4976349;28;20173;-81
2023/01/16 05:47:57;;;;;;;4.30;1.20;;;3.10;99.90;;;;;;4976428;28;20656;-82
2023/01/16 05:50:23;;;;;;;2.00;1.47;;;3.10;99.90;;;;;;4993421;28;20224;-82
2023/01/16 05:52:49;;;;;;;1.70;1.03;;;3.10;99.90;;;;;;4976220;28;20227;-82
2023/01/16 05:55:15;;;;;;;1.70;1.20;;;3.20;99.90;;;;;;4993477;28;20185;-82
2023/01/16 05:57:40;;;;;;;3.60;1.30;;;3.20;99.90;;;;;;4993654;28;20260;-82
2023/01/16 06:00:07;;;;;;;2.40;1.23;;;3.20;99.90;;;;;;4976292;28;20201;-82
2023/01/16 06:02:32;;;;;;;3.80;1.20;;;3.30;99.90;;;;;;4993104;28;20202;-82
2023/01/16 06:04:58;;;;;;;1.50;1.00;;;3.30;99.90;;;;;;4993456;28;20273;-82
2023/01/16 06:07:24;;;;;;;1.20;1.00;;;3.30;99.90;;;;;;4993184;28;20734;-82
2023/01/16 06:09:49;;;;;;;1.10;0.90;;;3.40;99.90;;;;;;4992943;28;20176;-89
2023/01/16 06:12:16;;;;;;;2.63;1.03;;;3.30;99.90;;;;;;4992735;28;20217;-89
2023/01/16 06:14:43;;;;;;;2.60;1.03;;;3.30;99.90;;;;;;4976009;28;20178;-89
2023/01/16 06:17:09;;;;;;;3.43;1.27;;;3.30;99.90;;;;;;4975746;28;20206;-88
2023/01/16 06:19:34;;;;;;;4.33;1.13;;;3.40;99.90;;;;;;4978426;28;20181;-88
2023/01/16 06:22:00;;;;;;;1.97;1.10;;;3.40;99.90;;;;;;4979507;28;20190;-88
2023/01/16 06:24:26;;;;;;;2.67;1.20;;;3.40;99.90;;;;;;4994785;28;20184;-88
2023/01/16 06:26:51;;;;;;;1.90;0.70;;;3.40;99.90;;;;;;4983939;28;20200;-88
2023/01/16 06:29:17;;;;;;;3.03;1.20;;;3.40;99.90;;;;;;4988421;28;20224;-88
2023/01/16 06:31:42;;;;;;;2.47;0.90;;;3.50;99.90;;;;;;4998366;28;20201;-88
2023/01/16 06:34:08;;;;;;;2.23;1.23;;;3.50;99.90;;;;;;4998870;28;20177;-88
2023/01/16 06:36:33;;;;;;;2.70;1.10;;;3.50;99.90;;;;;;4998649;28;20247;-89
2023/01/16 06:38:59;;;;;;;1.50;1.00;;;3.50;99.90;;;;;;4998442;28;20244;-88
2023/01/16 06:41:25;;;;;;;2.20;1.20;;;3.50;99.90;;;;;;4998450;28;20201;-89
2023/01/16 06:43:50;;;;;;;1.70;0.70;;;3.50;99.90;;;;;;5016113;28;20178;-88
2023/01/16 06:46:16;;;;;;;1.37;1.10;;;3.50;99.90;;;;;;5015767;28;20222;-89
2023/01/16 06:48:41;;;;;;;1.67;1.00;;;3.50;99.90;;;;;;4998723;28;20208;-86
2023/01/16 06:51:09;;;;;;;3.33;0.93;;;3.50;99.90;;;;;;5015658;28;20173;-88
2023/01/16 06:53:35;;;;;;;2.63;1.10;;;3.50;99.90;;;;;;5015541;28;20174;-84
2023/01/16 06:56:01;;;;;;;1.20;1.00;;;3.60;99.90;;;;;;5015996;28;20315;-86
2023/01/16 06:58:26;;;;;;;1.03;0.90;;;3.60;99.90;;;;;;4997943;28;20245;-86
2023/01/16 07:00:52;;;;;;;2.17;1.10;;;3.60;99.90;;;;;;4998225;28;20629;-83
2023/01/16 07:03:18;;;;;;;1.80;0.80;;;3.60;99.90;;;;;;5015658;28;20217;-88
2023/01/16 07:05:45;;;;;;;2.00;0.90;;;3.60;99.90;;;;;;4998137;28;20178;-88
2023/01/16 07:08:11;;;;;;;0.90;0.57;;;3.60;99.90;;;;;;5015744;28;20185;-86
2023/01/16 07:10:36;;;;;;;2.53;0.90;;;3.60;99.90;;;;;;5015356;28;20182;-85
2023/01/16 07:13:02;;;;;;;2.70;1.00;;;3.60;99.90;;;;;;4998756;28;20225;-84
2023/01/16 07:24:08;;;;;;;1.30;0.80;;;3.70;99.90;;;;;;5015423;28;20578;-87
2023/01/16 07:26:39;;;;;;;2.00;0.90;;;3.70;99.90;;;;;;5015221;28;20312;-86
2023/01/16 07:29:06;;;;;;;0.60;0.60;;;3.70;99.90;;;;;;5015342;28;20169;-86
2023/01/16 07:31:33;;;;;;;2.40;1.00;;;3.70;99.90;;;;;;4996559;28;20201;-88
2023/01/16 07:33:58;;;;;;;2.00;0.93;;;3.70;99.90;;;;;;5015111;28;20177;-86
2023/01/16 07:36:24;;;;;;;2.73;1.40;;;3.80;99.90;;;;;;5015339;28;20727;-80
2023/01/16 07:38:50;;;;;;;3.33;1.53;;;4.00;99.90;;;;;;4978000;28;20186;-79
2023/01/16 07:41:15;;;;;;;1.40;0.80;;;4.10;99.90;;;;;;4977268;28;20255;-82
2023/01/16 07:43:41;;;;;;;1.30;0.80;;;4.00;99.90;;;;;;4960049;28;20187;-82
2023/01/16 07:46:07;;;;;;;1.93;0.80;;;3.90;99.90;;;;;;4976053;28;20187;-86
2023/01/16 07:48:32;;;;;;;1.47;0.60;;;3.80;99.90;;;;;;4958199;28;20207;-90
2023/01/16 07:50:59;;;;;;;2.43;0.80;;;3.80;99.90;;;;;;4958286;28;20689;-90
2023/01/16 07:53:27;;;;;;;3.60;0.90;;;3.80;99.90;;;;;;4975794;28;20553;-90
2023/01/16 07:55:55;;;;;;;1.63;0.90;;;3.80;99.90;;;;;;4958724;28;20190;-90
2023/01/16 07:58:21;;;;;;;1.70;0.70;;;3.90;99.90;;;;;;4958526;28;20207;-88
2023/01/16 08:00:47;;;;;;;0.97;0.70;;;3.90;99.90;;;;;;4958208;28;20184;-90
2023/01/16 08:03:14;;;;;;;1.10;0.90;;;3.90;99.90;;;;;;4958310;28;20217;-90
2023/01/16 08:05:40;;;;;;;2.10;0.67;;;3.90;99.90;;;;;;4957926;28;20209;-90
2023/01/16 08:08:06;;;;;;;2.27;0.90;;;3.90;99.90;;;;;;4975583;28;20187;-90
2023/01/16 08:10:31;;;;;;;2.50;0.70;;;4.00;99.90;;;;;;4957740;28;20192;-90
2023/01/16 08:12:57;;;;;;;1.07;0.77;;;4.10;99.90;;;;;;4957875;28;20577;-90
2023/01/16 08:15:23;;;;;;;2.57;0.80;;;4.10;99.90;;;;;;4957015;28;20191;-89
2023/01/16 08:17:48;;;;;;;2.33;0.80;;;4.20;99.90;;;;;;4973497;28;20206;-91
2023/01/16 08:20:14;;;;;;;1.73;0.80;;;4.20;99.90;;;;;;4975976;28;20278;-91
2023/01/16 08:22:47;;;;;;;1.50;0.87;;;4.10;99.90;;;;;;4958017;28;20234;-91
2023/01/16 08:25:14;;;;;;;2.20;1.00;;;4.10;99.90;;;;;;4975294;28;20172;-91
2023/01/16 08:27:40;;;;;;;1.53;0.83;;;4.00;99.90;;;;;;4957836;28;20383;-91
2023/01/16 08:30:08;;;;;;;3.00;1.00;;;4.00;99.90;;;;;;4957682;28;20673;-90
2023/01/16 08:32:33;;;;;;;1.97;0.90;;;4.00;99.90;;;;;;4974623;28;20286;-91
2023/01/16 08:34:59;;;;;;;2.47;0.90;;;4.00;99.90;;;;;;4957663;28;20335;-91
2023/01/16 08:37:24;;;;;;;1.80;0.83;;;4.00;99.90;;;;;;4957716;28;20207;-91
2023/01/16 08:39:50;;;;;;;2.07;1.07;;;4.00;99.90;;;;;;4957993;28;20176;-91
2023/01/16 08:53:11;;;;;;;1.80;1.03;;;4.10;99.90;;;;;;4974936;28;20254;-93
2023/01/16 08:55:38;;;;;;;1.87;1.00;;;4.10;99.90;;;;;;4957456;28;20690;-86
2023/01/16 08:58:04;;;;;;;1.80;0.80;;;4.10;99.90;;;;;;4974623;28;20203;-92
2023/01/16 09:00:30;;;;;;;1.50;0.80;;;4.10;99.90;;;;;;4957066;28;20183;-90
2023/01/16 09:02:59;;;;;;;2.70;0.80;;;4.10;99.90;;;;;;4977718;28;20256;-90
2023/01/16 09:05:24;;;;;;;2.13;1.00;;;4.10;99.90;;;;;;5002905;28;20175;-91
2023/01/16 09:07:50;;;;;;;2.07;1.10;;;4.10;99.90;;;;;;4993752;28;20720;-90
2023/01/16 09:10:16;;;;;;;2.10;1.17;;;4.20;99.90;;;;;;4991512;28;20175;-90
2023/01/16 09:15:45;;;;;;;2.80;1.10;;;4.20;99.90;;;;;;4954416;28;20191;-91
2023/01/16 09:18:11;;;;;;;1.83;1.00;;;4.10;99.90;;;;;;4970932;28;20682;-92
2023/01/16 09:20:36;;;;;;;1.40;1.00;;;4.10;99.90;;;;;;4980774;28;20321;-88
2023/01/16 09:23:03;;;;;;;1.73;1.00;;;4.20;99.90;;;;;;4992948;28;20244;-87
2023/01/16 09:25:30;;;;;;;3.40;1.00;;;4.30;99.90;;;;;;4975618;28;20198;-88
2023/01/16 09:27:56;;;;;;;0.90;0.90;;;4.30;99.90;;;;;;4992877;28;20216;-89
2023/01/16 09:30:22;;;;;;;2.93;1.27;;;4.50;99.90;;;;;;4992580;28;20218;-89
2023/01/16 09:32:47;;;;;;;2.23;1.10;;;4.50;99.90;;;;;;4979307;28;20204;-88
2023/01/16 09:35:14;;;;;;;1.57;0.70;;;4.60;99.90;;;;;;4989896;28;20263;-86
2023/01/16 09:37:40;;;;;;;3.70;0.90;;;4.60;99.90;;;;;;4986688;28;20297;-86
2023/01/16 09:40:12;;;;;;;2.27;1.03;;;4.70;99.90;;;;;;4978561;28;20180;-87
2023/01/16 09:45:50;;;;;;;2.20;0.93;;;4.80;99.90;;;;;;4972969;28;20192;-85
2023/01/16 09:48:33;;;;;;;2.33;0.93;;;4.90;99.90;;;;;;4956069;28;20184;-86
2023/01/16 09:51:07;;;;;;;1.37;0.90;;;4.90;99.90;;;;;;4955040;28;20180;-87
2023/01/16 09:59:37;;;;;;;2.27;1.20;;;4.80;99.90;;;;;;4977729;28;20183;-87
2023/01/16 10:02:25;;;;;;;3.10;1.00;;;5.00;99.90;;;;;;4959616;28;20207;-88
2023/01/16 10:04:53;;;;;;;1.77;1.10;;;5.00;99.90;;;;;;4960036;28;20218;-87
2023/01/16 10:07:37;;;;;;;0.97;0.60;;;4.90;99.90;;;;;;4977069;28;20184;-88
2023/01/16 10:10:26;;;;;;;2.53;0.90;;;4.80;99.90;;;;;;4976755;28;20188;-87
2023/01/16 10:13:09;;;;;;;1.80;0.90;;;4.80;99.90;;;;;;4959613;28;20219;-87
2023/01/16 10:15:44;;;;;;;1.33;0.80;;;4.70;99.90;;;;;;4979406;28;20206;-87
2023/01/16 10:18:39;;;;;;;1.73;1.00;;;4.60;99.90;;;;;;4976240;28;20201;-88
2023/01/16 10:21:17;;;;;;;0.87;0.80;;;4.60;99.90;;;;;;4990118;28;20307;-87
2023/01/16 10:24:02;;;;;;;1.23;0.90;;;4.40;99.90;;;;;;4992485;28;20607;-89
2023/01/16 10:26:29;;;;;;;2.13;0.90;;;4.40;99.90;;;;;;4980223;28;20224;-88
2023/01/16 10:29:22;;;;;;;1.27;1.00;;;4.40;99.90;;;;;;5010138;28;20208;-89
2023/01/16 10:31:53;;;;;;;0.87;0.87;;;4.40;99.90;;;;;;4998169;28;20202;-89
2023/01/16 10:34:35;;;;;;;1.10;0.80;;;4.30;99.90;;;;;;4997979;28;20167;-88
2023/01/16 10:37:02;;;;;;;1.67;0.93;;;4.30;99.90;;;;;;4998047;28;20684;-89
2023/01/16 10:39:33;;;;;;;0.90;0.90;;;4.40;99.90;;;;;;5015264;28;20177;-90
2023/01/16 10:50:35;;;;;;;1.67;0.80;;;4.40;99.90;;;;;;5015577;28;20181;-89
2023/01/16 10:53:01;;;;;;;1.03;0.70;;;4.40;99.90;;;;;;4997559;28;20571;-89
2023/01/16 10:55:27;;;;;;;0.80;0.80;;;4.40;99.90;;;;;;5005910;28;20187;-90
2023/01/16 10:57:55;;;;;;;1.30;0.77;;;4.40;99.90;;;;;;4997537;28;20209;-89
2023/01/16 11:00:29;;;;;;;1.60;1.00;;;4.40;99.90;;;;;;5014793;28;20181;-89
2023/01/16 11:02:58;;;;;;;1.10;0.70;;;4.40;99.90;;;;;;5011749;28;20211;-90
2023/01/16 11:05:24;;;;;;;2.80;0.90;;;4.40;99.90;;;;;;4994833;28;20182;-82
2023/01/16 11:07:53;;;;;;;0.63;0.63;;;4.30;99.90;;;;;;4995338;28;20175;-85
2023/01/16 11:10:20;;;;;;;1.83;0.80;;;4.20;99.90;;;;;;4984915;28;20230;-90
2023/01/16 11:18:34;;;;;;;1.17;0.80;;;3.80;99.90;;;;;;5019214;28;20227;-87
2023/01/16 11:21:13;;;;;;;2.00;0.90;;;3.60;99.90;;;;;;5006334;28;20168;-87
2023/01/16 11:23:42;;;;;;;2.10;1.30;;;3.40;99.90;;;;;;4997506;28;20231;-88
2023/01/16 11:26:09;;;;;;;1.73;1.00;;;3.30;99.90;;;;;;4997476;28;20184;-88
2023/01/16 11:28:36;;;;;;;1.10;0.97;;;3.00;99.90;;;;;;4997082;28;20275;-90
2023/01/16 11:31:24;;;;;;;1.20;0.93;;;3.00;99.90;;;;;;5014805;28;20443;-89
2023/01/16 11:33:57;;;;;;;2.83;1.10;;;3.00;99.90;;;;;;4997298;28;20180;-89
2023/01/16 11:36:25;;;;;;;3.17;2.10;;;3.00;99.90;;;;;;4996802;28;20202;-88
2023/01/16 11:38:52;;;;;;;1.53;1.03;;;3.10;99.90;;;;;;4996965;28;20178;-83
2023/01/16 11:41:23;;;;;;;3.10;1.20;;;3.10;99.90;;;;;;4996758;28;20234;-86
2023/01/16 11:46:58;;;;;;;2.30;1.27;;;3.20;99.90;;;;;;5015208;28;20183;-83
2023/01/16 11:49:39;;;;;;;2.47;0.97;;;3.10;99.90;;;;;;5014339;28;20203;-86
2023/01/16 11:52:05;;;;;;;1.17;1.00;;;3.10;99.90;;;;;;5014181;28;20204;-84
2023/01/16 11:54:33;;;;;;;3.33;1.23;;;3.00;99.90;;;;;;4996594;28;20180;-83
2023/01/16 11:57:02;;;;;;;1.70;1.00;;;2.90;99.90;;;;;;5013701;28;20205;-83
2023/01/16 11:59:45;;;;;;;1.40;1.03;;;2.80;99.90;;;;;;4995380;28;20183;-83
2023/01/16 12:02:43;;;;;;;1.10;1.00;;;2.70;99.90;;;;;;5013598;28;20191;-83
2023/01/16 12:08:44;;;;;;;2.30;1.10;;;2.50;99.90;;;;;;5013801;28;20186;-83
2023/01/16 12:11:28;;;;;;;1.17;1.07;;;2.50;99.90;;;;;;5013084;28;20548;-83
2023/01/16 12:14:20;;;;;;;1.10;1.00;;;2.40;99.90;;;;;;5014085;28;20198;-82
2023/01/16 12:17:04;;;;;;;1.10;1.00;;;2.30;99.90;;;;;;4996114;28;20192;-83
2023/01/16 12:20:14;;;;;;;1.90;1.10;;;2.30;99.90;;;;;;4996293;28;20171;-83
2023/01/16 12:23:10;;;;;;;1.30;0.97;;;2.40;99.90;;;;;;4996297;28;20218;-83
2023/01/16 12:25:43;;;;;;;1.00;0.90;;;2.40;99.90;;;;;;5013553;28;20178;-83
2023/01/16 12:28:27;;;;;;;1.70;0.80;;;2.40;99.90;;;;;;5013891;28;20182;-83
2023/01/16 12:31:17;;;;;;;0.80;0.80;;;2.50;99.90;;;;;;5013640;28;20660;-83
2023/01/16 12:34:01;;;;;;;0.53;0.53;;;2.50;99.90;;;;;;4995942;28;20178;-83
2023/01/16 12:36:51;;;;;;;0.73;0.60;;;2.60;99.90;;;;;;5013552;28;20270;-83
2023/01/16 12:39:28;;;;;;;0.80;0.70;;;2.70;99.90;;;;;;5013515;28;20187;-82
2023/01/16 12:45:15;;;;;;;0.40;0.40;;;2.80;99.90;;;;;;5013703;28;20169;-83
2023/01/16 12:48:02;;;;;;;0.40;0.40;;;2.90;99.90;;;;;;4995621;28;20175;-83
2023/01/16 12:50:27;;;;;;;0.40;0.40;;;2.90;99.90;;;;;;4995575;28;20185;-83
2023/01/16 12:53:18;;;;;;;2.93;2.27;;;2.90;99.90;;;;;;5013435;28;20282;-83
2023/01/16 12:56:10;;;;;;;0.20;0.20;;;2.90;99.90;;;;;;4995563;28;20269;-82
2023/01/16 12:58:40;;;;;;;0.67;0.47;;;2.90;99.90;;;;;;4973116;28;20689;-83
2023/01/16 13:01:22;;;;;;;0.40;0.20;;;2.90;99.90;;;;;;4995083;28;20180;-83
2023/01/16 13:03:52;;;;;;;0.30;0.30;;;2.90;99.90;;;;;;4995665;28;20176;-83
2023/01/16 13:06:25;;;;;;;0.63;0.60;;;3.00;99.90;;;;;;4995431;28;20316;-82
2023/01/16 13:09:05;;;;;;;0.40;0.40;;;3.00;99.90;;;;;;4995595;28;20271;-83
2023/01/16 13:14:04;;;;;;;1.07;0.60;;;3.10;99.90;;;;;;4974424;28;20205;-81
2023/01/16 13:16:40;;;;;;;1.00;0.70;;;3.10;99.90;;;;;;4976150;28;20206;-82
2023/01/16 13:19:11;;;;;;;0.50;0.50;;;3.20;99.90;;;;;;4975141;28;20689;-84
2023/01/16 13:21:57;;;;;;;0.70;0.70;;;3.20;99.90;;;;;;4972710;28;20177;-84
2023/01/16 13:24:29;;;;;;;0.50;0.50;;;3.30;99.90;;;;;;4946904;28;20187;-84
2023/01/16 13:27:03;;;;;;;1.13;0.70;;;3.30;99.90;;;;;;4956972;28;20181;-83
2023/01/16 13:29:46;;;;;;;0.43;0.43;;;3.30;99.90;;;;;;4973481;28;20676;-83
2023/01/16 13:32:32;;;;;;;0.50;0.50;;;3.30;99.90;;;;;;4969898;28;20575;-83
2023/01/16 13:35:04;;;;;;;1.47;0.70;;;3.40;99.90;;;;;;4953104;29;20182;-82
2023/01/16 13:37:36;;;;;;;1.07;0.60;;;3.40;99.90;;;;;;4954725;28;20262;-82
2023/01/16 13:40:14;;;;;;;1.43;0.50;;;3.40;99.90;;;;;;4954822;28;20567;-83
2023/01/16 13:42:53;;;;;;;0.50;0.50;;;3.50;99.90;;;;;;4952911;28;20193;-82
2023/01/16 13:45:50;;;;;;;0.57;0.57;;;3.50;99.90;;;;;;4948361;28;20179;-80
2023/01/16 13:48:20;;;;;;;0.77;0.70;;;3.50;99.90;;;;;;4944101;29;20660;-82
2023/01/16 13:50:58;;;;;;;0.97;0.67;;;3.50;99.90;;;;;;4961782;28;20235;-80
2023/01/16 13:53:24;;;;;;;0.60;0.53;;;3.60;99.90;;;;;;4957001;28;20703;-83
2023/01/16 13:56:06;;;;;;;0.50;0.50;;;3.60;99.90;;;;;;4957259;28;20178;-83
2023/01/16 13:58:32;;;;;;;0.60;0.60;;;3.60;99.90;;;;;;4957406;28;20268;-83
2023/01/16 14:01:00;;;;;;;1.43;0.90;;;3.60;99.90;;;;;;4974237;28;20577;-80
2023/01/16 14:03:31;;;;;;;0.70;0.57;;;3.60;99.90;;;;;;4974698;28;20189;-81
2023/01/16 14:06:17;;;;;;;0.93;0.60;;;3.70;99.90;;;;;;4974250;28;20248;-82
2023/01/16 14:09:04;;;;;;;1.33;1.23;;;3.70;99.90;;;;;;4919738;29;20259;-83
2023/01/16 14:11:47;;;;;;;1.83;0.60;;;3.60;99.90;;;;;;4935701;29;20193;-83
2023/01/16 14:17:20;;;;;;;0.40;0.40;;;3.60;99.90;;;;;;4935548;29;20741;-83
2023/01/16 14:20:01;;;;;;;0.57;0.57;;;3.70;99.90;;;;;;4935780;29;20178;-82
2023/01/16 14:25:02;;;;;;;1.33;0.70;;;3.70;99.90;;;;;;4936012;29;20525;-81
2023/01/16 14:27:36;;;;;;;1.03;0.70;;;3.70;99.90;;;;;;4935740;29;20184;-82